Time;durP1;ratioP1;P1;durP2;ratioP2;P2;SDS_P1;SDS_P2;PMS_P1;PMS_P2;Temp;Humidity;BMP_temperature;BMP_pressure;BME280_temperature;BME280_humidity;BME280_pressure;Samples;Min_cycle;Max_cycle;Signal;HPM_P1;HPM_P2
2022/03/09 11:20:41;;;;;;;17.70;11.23;;;;;;;3.95;67.16;100876.82;1375468;86;21725;-95
2022/03/09 11:23:10;;;;;;;19.80;12.07;;;;;;;4.33;66.32;100852.16;1386834;88;21370;-94
2022/03/09 16:22:31;;;;;;;25.68;15.88;;;;;;;3.33;76.58;100827.31;1387136;86;21564;-96
2022/03/09 16:24:58;;;;;;;23.03;14.70;;;;;;;3.33;76.47;100828.62;1378298;86;21709;-96
2022/03/09 16:27:26;;;;;;;21.53;12.13;;;;;;;3.34;77.41;100831.63;1360453;88;22201;-94
2022/03/09 16:29:53;;;;;;;22.10;13.70;;;;;;;3.27;78.06;100831.13;1354379;86;21926;-95
2022/03/09 16:32:21;;;;;;;21.97;14.33;;;;;;;3.30;77.37;100824.88;1381678;86;21733;-95
2022/03/09 16:34:51;;;;;;;22.20;14.23;;;;;;;3.23;78.62;100832.73;1361634;91;22612;-94
2022/03/09 16:37:18;;;;;;;21.48;13.62;;;;;;;3.19;78.70;100831.22;1392207;86;22845;-92
2022/03/09 16:39:46;;;;;;;23.13;14.07;;;;;;;3.14;79.09;100828.41;1402090;86;21772;-94
2022/03/09 16:42:15;;;;;;;21.17;14.70;;;;;;;3.10;78.83;100826.89;1378768;88;21857;-93
2022/03/09 16:44:42;;;;;;;23.53;14.20;;;;;;;3.15;78.62;100829.25;1401117;86;22824;-93
2022/03/09 16:47:10;;;;;;;20.83;13.37;;;;;;;3.18;78.68;100823.00;1352330;89;22889;-94
2022/03/09 16:49:39;;;;;;;21.77;13.97;;;;;;;3.14;78.69;100826.27;1368660;85;22726;-91
2022/03/09 16:52:07;;;;;;;26.03;16.87;;;;;;;3.11;78.46;100829.91;1342814;91;21672;-91
2022/03/09 16:54:34;;;;;;;23.40;14.93;;;;;;;3.10;78.19;100821.66;1337948;92;21573;-91
2022/03/09 16:57:02;;;;;;;20.77;13.27;;;;;;;3.11;78.32;100828.59;1330826;92;23277;-90
2022/03/09 16:59:29;;;;;;;19.37;13.20;;;;;;;3.07;78.56;100832.30;1334361;92;21568;-93
2022/03/09 17:01:57;;;;;;;21.57;13.83;;;;;;;3.03;78.48;100838.66;1319711;92;21585;-90
2022/03/09 17:04:24;;;;;;;21.47;14.40;;;;;;;3.05;78.36;100838.11;1366438;86;22610;-96
2022/03/09 17:06:52;;;;;;;22.43;14.23;;;;;;;2.97;78.93;100840.80;1408420;87;21477;-96
2022/03/09 17:09:19;;;;;;;21.77;16.53;;;;;;;2.97;79.11;100840.33;1408356;87;23025;-96
2022/03/09 17:11:47;;;;;;;23.77;14.10;;;;;;;2.97;78.75;100843.41;1407127;87;21452;-95
2022/03/09 17:14:14;;;;;;;23.00;14.87;;;;;;;2.94;79.49;100848.34;1394022;87;21576;-94
2022/03/09 17:16:42;;;;;;;24.97;16.73;;;;;;;2.91;79.55;100854.59;1389304;89;21541;-96
2022/03/09 17:19:09;;;;;;;23.67;15.23;;;;;;;2.90;79.21;100858.12;1390846;89;21437;-93
2022/03/09 17:21:37;;;;;;;24.90;16.20;;;;;;;2.92;78.79;100858.05;1391254;89;21450;-94
2022/03/09 17:24:05;;;;;;;27.43;16.20;;;;;;;2.91;79.12;100864.22;1382537;87;21909;-96
2022/03/09 17:26:34;;;;;;;28.20;16.43;;;;;;;2.88;79.08;100861.31;1375956;90;21680;-95
2022/03/09 17:29:02;;;;;;;23.07;14.80;;;;;;;2.89;79.05;100858.22;1376011;89;21517;-95
2022/03/09 17:31:29;;;;;;;25.10;16.70;;;;;;;2.88;78.69;100857.39;1357149;90;21564;-96
2022/03/09 17:33:56;;;;;;;25.63;16.10;;;;;;;2.85;78.48;100854.08;1382787;89;21473;-96
2022/03/09 17:36:24;;;;;;;19.27;12.03;;;;;;;2.88;77.83;100853.94;1365710;91;21415;-93
2022/03/09 17:38:56;;;;;;;17.93;10.90;;;;;;;2.79;78.00;100858.36;1382259;90;21570;-96
2022/03/09 17:41:24;;;;;;;15.60;10.73;;;;;;;2.79;78.07;100861.84;1394176;87;21930;-94
2022/03/09 17:43:52;;;;;;;18.27;10.90;;;;;;;2.74;78.09;100856.49;1397324;88;21373;-94
2022/03/09 17:46:21;;;;;;;19.10;10.93;;;;;;;2.71;78.27;100860.12;1394688;88;22331;-93
2022/03/09 17:48:48;;;;;;;14.87;10.43;;;;;;;2.68;78.20;100866.36;1393616;88;21671;-94
2022/03/09 17:51:17;;;;;;;16.53;10.93;;;;;;;2.62;78.46;100861.95;1394823;88;21232;-94
2022/03/09 17:53:44;;;;;;;17.20;11.33;;;;;;;2.59;78.67;100859.04;1395513;88;21554;-94
2022/03/09 17:56:12;;;;;;;15.93;9.50;;;;;;;2.59;78.68;100861.66;1381066;89;21547;-93
2022/03/09 17:58:39;;;;;;;13.77;8.83;;;;;;;2.58;78.48;100864.34;1396930;88;21523;-95
2022/03/09 18:01:06;;;;;;;15.60;10.03;;;;;;;2.58;78.54;100870.40;1386948;88;22296;-89
2022/03/09 18:03:33;;;;;;;14.87;9.57;;;;;;;2.55;78.47;100874.96;1391812;88;21590;-93
2022/03/09 18:06:03;;;;;;;15.70;10.90;;;;;;;2.57;78.30;100872.64;1382425;88;21508;-94
2022/03/09 18:08:30;;;;;;;16.27;10.73;;;;;;;2.54;78.24;100868.90;1379320;89;21467;-92
2022/03/09 18:10:58;;;;;;;15.03;9.73;;;;;;;2.57;78.20;100870.03;1380275;89;21486;-94
2022/03/09 18:13:26;;;;;;;15.53;10.20;;;;;;;2.58;77.99;100871.70;1378477;89;21574;-93
2022/03/09 18:15:54;;;;;;;12.73;7.87;;;;;;;2.62;77.45;100873.23;1365539;90;21668;-92
2022/03/09 18:18:22;;;;;;;16.67;8.87;;;;;;;2.51;77.38;100861.70;1378471;89;21480;-92
2022/03/09 18:20:50;;;;;;;13.73;8.80;;;;;;;2.49;77.70;100875.67;1385398;88;21509;-91
2022/03/09 18:23:17;;;;;;;15.37;10.40;;;;;;;2.51;77.29;100870.38;1386498;88;21487;-94
2022/03/09 18:25:45;;;;;;;16.33;10.80;;;;;;;2.51;77.47;100868.23;1388473;88;23153;-95
2022/03/09 18:28:12;;;;;;;15.27;10.13;;;;;;;2.52;77.54;100870.74;1385839;88;21546;-92
2022/03/09 18:30:39;;;;;;;22.17;13.33;;;;;;;2.49;77.82;100869.61;1385895;89;21504;-92
2022/03/09 18:33:07;;;;;;;19.90;12.07;;;;;;;2.55;77.30;100870.57;1386141;89;21426;-93
2022/03/09 18:35:34;;;;;;;23.23;14.23;;;;;;;2.55;77.64;100878.41;1388793;89;21568;-94
2022/03/09 18:38:01;;;;;;;22.90;14.83;;;;;;;2.51;78.52;100867.77;1387048;88;22517;-93
2022/03/09 18:40:29;;;;;;;20.23;13.07;;;;;;;2.52;78.33;100870.74;1371675;88;21544;-92
2022/03/09 18:42:58;;;;;;;20.73;12.87;;;;;;;2.45;79.56;100872.03;1404371;87;21608;-93
2022/03/09 18:45:25;;;;;;;23.40;15.63;;;;;;;2.41;79.87;100873.11;1401399;88;21523;-92
2022/03/09 18:47:52;;;;;;;23.20;14.57;;;;;;;2.43;79.98;100868.65;1401031;87;21654;-93
2022/03/09 18:50:20;;;;;;;17.27;11.10;;;;;;;2.47;79.29;100872.77;1383301;89;22218;-93
2022/03/09 18:52:48;;;;;;;18.77;11.60;;;;;;;2.41;79.85;100871.33;1400329;88;21594;-92
2022/03/09 18:55:15;;;;;;;19.90;11.93;;;;;;;2.43;79.54;100879.94;1400925;87;21543;-94
2022/03/09 18:57:42;;;;;;;18.77;10.53;;;;;;;2.45;79.47;100874.64;1403211;87;21506;-92
2022/03/09 19:00:11;;;;;;;15.73;11.00;;;;;;;2.43;79.16;100882.55;1403038;87;21618;-91
2022/03/09 19:02:38;;;;;;;15.20;10.67;;;;;;;2.43;79.10;100881.70;1402711;87;21533;-93
2022/03/09 19:05:06;;;;;;;15.70;10.67;;;;;;;2.40;79.27;100877.96;1404064;87;21610;-93
2022/03/09 19:07:34;;;;;;;19.80;11.73;;;;;;;2.38;78.94;100885.87;1402580;87;21573;-91
2022/03/09 19:10:01;;;;;;;16.30;10.73;;;;;;;2.29;79.78;100892.91;1383323;89;23063;-92
2022/03/09 19:12:28;;;;;;;16.43;10.10;;;;;;;2.26;79.84;100893.91;1402641;87;22011;-93
2022/03/09 19:14:57;;;;;;;18.00;12.00;;;;;;;2.26;79.98;100893.91;1403703;87;21650;-95
2022/03/09 19:17:24;;;;;;;15.27;11.03;;;;;;;2.31;79.40;100896.28;1405160;87;21492;-94
2022/03/09 19:19:51;;;;;;;11.50;8.33;;;;;;;2.28;80.04;100894.31;1405522;87;22334;-93
2022/03/09 19:22:20;;;;;;;14.10;9.77;;;;;;;2.19;80.34;100895.65;1384584;89;22321;-94
2022/03/09 19:24:47;;;;;;;14.43;9.03;;;;;;;2.23;80.18;100894.08;1404340;87;21455;-93
2022/03/09 19:27:16;;;;;;;17.63;11.93;;;;;;;2.20;80.15;100892.94;1403395;87;22546;-93
2022/03/09 19:29:43;;;;;;;18.40;12.33;;;;;;;2.15;80.51;100891.03;1403785;87;22552;-94
2022/03/09 19:32:10;;;;;;;16.07;10.90;;;;;;;2.19;80.59;100890.43;1384017;87;21367;-93
2022/03/09 19:34:38;;;;;;;14.67;9.60;;;;;;;2.22;80.46;100896.79;1402346;87;21528;-93
2022/03/09 19:37:07;;;;;;;21.43;12.30;;;;;;;2.12;80.79;100889.05;1403204;87;21691;-92
2022/03/09 19:39:34;;;;;;;17.00;11.37;;;;;;;2.14;80.85;100893.74;1402133;87;21635;-91
2022/03/09 19:42:02;;;;;;;17.40;11.57;;;;;;;2.09;81.19;100896.59;1398732;87;21529;-92
2022/03/09 19:44:30;;;;;;;21.03;12.23;;;;;;;2.09;81.24;100894.45;1391426;88;21544;-90
2022/03/09 19:46:57;;;;;;;22.17;13.63;;;;;;;2.05;81.43;100893.77;1391171;88;22393;-91
2022/03/09 19:49:29;;;;;;;19.50;11.90;;;;;;;2.06;81.29;100894.14;1374817;90;21505;-90
2022/03/09 19:51:57;;;;;;;21.33;14.00;;;;;;;2.03;81.40;100898.22;1359859;90;21602;-92
2022/03/09 19:54:26;;;;;;;18.87;11.97;;;;;;;2.02;81.53;100900.47;1392005;89;21583;-90
2022/03/09 19:56:54;;;;;;;19.43;11.27;;;;;;;2.01;81.67;100897.45;1388296;89;21432;-91
2022/03/09 19:59:21;;;;;;;22.83;13.43;;;;;;;1.96;81.79;100896.88;1389783;89;21574;-91
2022/03/09 20:01:48;;;;;;;21.03;12.33;;;;;;;2.01;81.26;100893.09;1380164;89;22829;-91
2022/03/09 20:04:18;;;;;;;22.30;13.43;;;;;;;1.96;81.77;100890.34;1382832;89;21474;-92
2022/03/09 20:06:48;;;;;;;18.77;13.73;;;;;;;1.97;81.65;100892.03;1389420;88;21380;-91
2022/03/09 20:09:16;;;;;;;22.48;14.05;;;;;;;1.96;81.81;100895.57;1389978;89;22525;-92
2022/03/09 20:11:44;;;;;;;25.63;16.03;;;;;;;1.99;81.60;100891.02;1399780;88;21265;-91
2022/03/09 20:14:12;;;;;;;20.20;12.57;;;;;;;1.99;81.68;100892.80;1399184;87;21506;-91
2022/03/09 20:16:39;;;;;;;23.40;14.37;;;;;;;1.95;81.91;100891.25;1399076;88;21548;-93
2022/03/09 20:19:06;;;;;;;23.43;14.50;;;;;;;1.97;81.63;100889.41;1380929;90;22620;-90
2022/03/09 20:21:33;;;;;;;19.93;11.70;;;;;;;1.95;81.98;100890.78;1398853;88;21602;-90
2022/03/09 20:24:00;;;;;;;21.07;13.20;;;;;;;1.89;82.09;100889.81;1401498;88;21508;-91
2022/03/09 20:26:27;;;;;;;19.63;13.30;;;;;;;1.87;82.17;100897.34;1387074;87;22462;-92
2022/03/09 20:28:55;;;;;;;19.10;12.53;;;;;;;1.87;82.19;100897.34;1381030;89;21276;-91
2022/03/09 20:31:22;;;;;;;21.10;14.20;;;;;;;1.89;82.03;100898.11;1381039;89;21449;-92
2022/03/09 20:33:49;;;;;;;18.20;10.83;;;;;;;1.86;82.01;100896.97;1380335;89;21508;-91
2022/03/09 20:36:17;;;;;;;18.90;12.83;;;;;;;1.84;81.72;100900.94;1382084;89;21701;-89
2022/03/09 20:38:47;;;;;;;20.57;12.57;;;;;;;1.83;81.56;100904.48;1398708;88;21560;-90
2022/03/09 20:41:14;;;;;;;22.20;14.30;;;;;;;1.80;81.31;100906.80;1398865;88;22545;-91
2022/03/09 20:43:42;;;;;;;23.80;14.50;;;;;;;1.83;81.20;100912.79;1379729;87;22643;-91
2022/03/09 20:46:09;;;;;;;20.03;13.53;;;;;;;1.83;81.02;100907.56;1386320;89;21858;-92
2022/03/09 20:48:36;;;;;;;21.20;13.07;;;;;;;1.84;80.85;100909.23;1373551;89;21661;-90
2022/03/09 20:51:05;;;;;;;15.10;8.87;;;;;;;1.78;80.65;100906.05;1371653;89;23198;-91
2022/03/09 20:53:32;;;;;;;17.80;10.57;;;;;;;1.76;80.48;100908.36;1372182;89;21588;-90
2022/03/09 20:55:59;;;;;;;19.57;12.17;;;;;;;1.74;80.63;100918.86;1370911;91;22491;-90
2022/03/09 20:58:26;;;;;;;17.70;12.83;;;;;;;1.78;80.55;100919.10;1373291;90;21484;-91
2022/03/09 21:00:54;;;;;;;24.60;14.57;;;;;;;1.76;80.62;100924.86;1343192;92;22433;-91
2022/03/09 21:03:21;;;;;;;21.70;13.80;;;;;;;1.79;80.24;100918.63;1343350;92;21418;-90
2022/03/09 21:05:48;;;;;;;22.17;13.73;;;;;;;1.77;80.29;100925.69;1343622;92;21572;-92
2022/03/09 21:08:15;;;;;;;18.83;12.67;;;;;;;1.75;80.51;100928.83;1333046;89;21538;-92
2022/03/09 21:10:43;;;;;;;16.37;10.97;;;;;;;1.78;80.47;100933.89;1359189;91;21483;-92
2022/03/09 21:13:11;;;;;;;18.67;12.83;;;;;;;1.71;80.62;100926.84;1358184;90;22492;-92
2022/03/09 21:15:38;;;;;;;21.47;12.80;;;;;;;1.71;80.60;100934.67;1371228;90;22665;-92
2022/03/09 21:18:05;;;;;;;22.30;15.07;;;;;;;1.70;80.77;100938.22;1371535;90;21643;-91
2022/03/09 21:20:32;;;;;;;33.10;13.00;;;;;;;1.66;81.06;100940.59;1371873;89;21443;-90
2022/03/09 21:22:59;;;;;;;19.73;13.00;;;;;;;1.68;80.97;100938.75;1371996;90;21534;-92
2022/03/09 21:25:27;;;;;;;20.07;13.03;;;;;;;1.67;81.02;100940.98;1371517;90;21497;-91
2022/03/09 21:27:54;;;;;;;19.13;13.03;;;;;;;1.70;80.76;100940.83;1367292;90;21640;-91
2022/03/09 21:30:22;;;;;;;20.20;12.33;;;;;;;1.66;81.10;100944.97;1361914;90;21849;-90
2022/03/09 21:32:50;;;;;;;22.23;14.17;;;;;;;1.65;81.26;100942.83;1361825;91;21746;-90
2022/03/09 21:35:25;;;;;;;25.87;15.07;;;;;;;1.64;81.20;100941.14;1352967;91;21722;-91
2022/03/09 21:37:54;;;;;;;19.90;14.50;;;;;;;1.62;81.54;100944.28;1352178;91;22376;-91
2022/03/09 21:40:22;;;;;;;19.53;13.23;;;;;;;1.61;81.58;100942.58;1339012;92;22514;-92
2022/03/09 21:42:49;;;;;;;21.13;12.93;;;;;;;1.56;81.64;100936.30;1355046;91;22713;-92
2022/03/09 21:45:16;;;;;;;23.13;14.13;;;;;;;1.60;81.55;100935.69;1353664;91;21542;-92
2022/03/09 21:47:44;;;;;;;21.73;14.23;;;;;;;1.58;81.52;100937.52;1359180;91;22879;-92
2022/03/09 21:50:11;;;;;;;21.30;14.67;;;;;;;1.59;81.28;100937.92;1354954;89;22388;-91
2022/03/09 21:52:38;;;;;;;21.90;13.73;;;;;;;1.60;81.00;100934.38;1366526;91;21695;-91
2022/03/09 21:55:07;;;;;;;21.27;11.40;;;;;;;1.58;80.84;100929.69;1371635;90;21519;-89
2022/03/09 21:57:35;;;;;;;16.93;12.40;;;;;;;1.54;80.31;100938.14;1371450;90;21666;-92
2022/03/09 22:00:05;;;;;;;17.40;12.53;;;;;;;1.54;79.92;100946.43;1371679;89;21632;-90
2022/03/09 22:02:32;;;;;;;18.57;10.77;;;;;;;1.56;79.89;100945.91;1362597;90;21395;-92
2022/03/09 22:05:00;;;;;;;20.27;13.23;;;;;;;1.53;79.23;100951.28;1363714;89;21603;-90
2022/03/09 22:07:27;;;;;;;18.10;10.17;;;;;;;1.54;79.10;100957.70;1371005;90;22606;-90
2022/03/09 22:09:54;;;;;;;18.13;12.17;;;;;;;1.50;79.15;100967.09;1368003;89;21489;-91
2022/03/09 22:12:22;;;;;;;18.97;12.30;;;;;;;1.49;78.90;100965.38;1372371;90;21658;-91
2022/03/09 22:14:50;;;;;;;15.63;10.57;;;;;;;1.47;79.02;100971.99;1346767;91;21626;-91
2022/03/09 22:17:17;;;;;;;19.67;13.20;;;;;;;1.44;79.21;100975.19;1335346;92;23005;-92
2022/03/09 22:19:44;;;;;;;19.70;12.37;;;;;;;1.38;79.07;100972.42;1358358;90;21640;-91
2022/03/09 22:22:12;;;;;;;18.07;12.47;;;;;;;1.35;79.22;100973.44;1371544;90;21667;-92
2022/03/09 22:24:39;;;;;;;20.97;13.83;;;;;;;1.36;79.18;100979.50;1357375;91;23065;-91
2022/03/09 22:27:06;;;;;;;19.90;11.77;;;;;;;1.31;79.51;100979.71;1371360;90;21451;-91
2022/03/09 22:29:33;;;;;;;18.67;11.50;;;;;;;1.26;79.85;100984.30;1371060;90;21530;-90
2022/03/09 22:32:00;;;;;;;24.17;13.43;;;;;;;1.19;80.46;100990.74;1344986;91;21595;-79
2022/03/09 22:34:28;;;;;;;15.87;9.63;;;;;;;1.12;80.76;100991.94;1369805;91;21460;-78
2022/03/09 22:36:55;;;;;;;20.27;12.77;;;;;;;1.04;80.49;100988.88;1361818;90;21577;-78
2022/03/09 22:39:22;;;;;;;15.73;10.17;;;;;;;1.00;80.66;100989.92;1352436;91;21581;-78
2022/03/09 22:41:49;;;;;;;17.60;10.83;;;;;;;0.96;80.38;100992.30;1352492;91;21573;-78
2022/03/09 22:44:16;;;;;;;19.90;12.47;;;;;;;0.88;80.72;100993.49;1352447;91;21705;-78
2022/03/09 22:46:43;;;;;;;19.10;11.77;;;;;;;0.87;80.27;101002.23;1352274;91;22467;-78
2022/03/09 22:49:11;;;;;;;22.48;12.93;;;;;;;0.78;80.09;101001.37;1368818;90;21593;-78
2022/03/09 22:51:39;;;;;;;19.10;12.53;;;;;;;0.71;79.92;101001.25;1370061;90;21260;-78
2022/03/09 22:54:06;;;;;;;16.33;10.37;;;;;;;0.67;79.72;101007.53;1361912;90;21414;-78
2022/03/09 22:56:33;;;;;;;17.42;11.80;;;;;;;0.64;79.47;101006.37;1370037;90;21933;-78
2022/03/09 22:59:00;;;;;;;16.15;10.40;;;;;;;0.51;79.76;101010.43;1347915;90;21281;-78
2022/03/09 23:01:28;;;;;;;17.42;11.00;;;;;;;0.45;79.53;101017.59;1353581;91;21294;-78
2022/03/09 23:03:56;;;;;;;17.67;12.05;;;;;;;0.43;78.99;101014.23;1345516;91;21339;-78
2022/03/09 23:06:24;;;;;;;14.60;9.88;;;;;;;0.36;78.65;101010.20;1335748;92;21354;-78
2022/03/09 23:08:51;;;;;;;15.48;9.55;;;;;;;0.32;78.29;101008.66;1337177;92;21423;-78
2022/03/09 23:11:19;;;;;;;20.05;11.05;;;;;;;0.31;77.65;101005.64;1349783;92;21311;-78
2022/03/09 23:13:46;;;;;;;14.15;9.98;;;;;;;0.19;77.28;101010.09;1338227;92;22676;-78
2022/03/09 23:16:13;;;;;;;12.45;8.95;;;;;;;0.17;77.04;101011.91;1351825;91;21273;-78
2022/03/09 23:18:40;;;;;;;13.35;8.38;;;;;;;0.07;76.75;101018.45;1352181;91;21239;-78
2022/03/09 23:21:09;;;;;;;13.18;8.55;;;;;;;0.02;76.25;101013.89;1352058;91;21273;-78
2022/03/09 23:23:36;;;;;;;13.58;8.20;;;;;;;-0.07;75.25;101019.87;1338832;92;22296;-78
2022/03/09 23:26:03;;;;;;;15.38;7.00;;;;;;;-0.15;74.76;101020.65;1348421;93;21328;-78
2022/03/09 23:28:30;;;;;;;7.65;5.15;;;;;;;-0.21;73.13;101021.37;1352206;91;21302;-78
2022/03/09 23:30:58;;;;;;;7.85;5.15;;;;;;;-0.25;70.86;101022.80;1351638;91;22185;-78
2022/03/09 23:33:25;;;;;;;7.58;5.53;;;;;;;-0.21;69.94;101026.58;1349426;91;21380;-79
2022/03/09 23:35:53;;;;;;;7.42;4.95;;;;;;;-0.21;68.62;101028.72;1354583;91;21313;-79
2022/03/09 23:38:20;;;;;;;7.12;4.15;;;;;;;-0.19;68.65;101041.21;1351693;91;21239;-78
2022/03/09 23:40:47;;;;;;;7.30;4.53;;;;;;;-0.23;67.15;101052.67;1352274;91;22178;-78
2022/03/09 23:43:14;;;;;;;7.78;4.17;;;;;;;-0.23;66.71;101056.57;1354195;91;21424;-78
2022/03/09 23:45:42;;;;;;;6.53;4.10;;;;;;;-0.27;66.28;101046.72;1357356;91;21372;-78
2022/03/09 23:48:09;;;;;;;6.20;3.47;;;;;;;-0.31;66.31;101045.62;1354444;92;21510;-78
2022/03/09 23:50:36;;;;;;;7.85;4.22;;;;;;;-0.38;65.65;101041.11;1357167;89;21439;-78
2022/03/09 23:53:03;;;;;;;11.68;4.75;;;;;;;-0.44;65.19;101043.13;1357643;91;21539;-79
2022/03/09 23:55:31;;;;;;;8.13;4.45;;;;;;;-0.48;64.09;101046.31;1354643;91;21422;-77
2022/03/09 23:57:58;;;;;;;8.70;4.40;;;;;;;-0.57;63.37;101050.59;1340705;92;21273;-77
